Time;durP1;ratioP1;P1;durP2;ratioP2;P2;SDS_P1;SDS_P2;PMS_P1;PMS_P2;Temp;Humidity;BMP_temperature;BMP_pressure;BME280_temperature;BME280_humidity;BME280_pressure;Samples;Min_cycle;Max_cycle;Signal;HPM_P1;HPM_P2
2023/05/29 00:01:56;;;;;;;;;;;;;;;20.66;69.85;100656.66;7397787;19;1564;-49
2023/05/29 00:04:24;;;;;;;;;;;;;;;20.59;70.49;100665.47;7397640;19;1484;-48
2023/05/29 00:06:53;;;;;;;;;;;;;;;20.73;70.09;100656.06;7396768;19;1760;-48
2023/05/29 00:09:21;;;;;;;;;;;;;;;20.62;70.93;100674.06;7397644;19;1862;-49
2023/05/29 00:11:51;;;;;;;;;;;;;;;20.74;70.73;100665.84;7396182;19;1683;-49
2023/05/29 00:14:20;;;;;;;;;;;;;;;20.69;70.85;100660.03;7397929;19;1573;-48
2023/05/29 00:16:52;;;;;;;;;;;;;;;20.70;71.01;100676.03;7395782;19;1532;-49
2023/05/29 00:19:21;;;;;;;;;;;;;;;20.64;71.02;100663.19;7396929;19;2017;-48
2023/05/29 00:21:50;;;;;;;;;;;;;;;20.66;71.11;100663.88;7395987;19;1611;-48
2023/05/29 00:24:18;;;;;;;;;;;;;;;20.68;70.92;100674.50;7394064;19;1537;-48
2023/05/29 00:26:46;;;;;;;;;;;;;;;20.64;71.29;100672.09;7395183;19;1477;-48
2023/05/29 00:29:15;;;;;;;;;;;;;;;20.64;71.32;100673.94;7395469;19;1507;-49
2023/05/29 00:31:43;;;;;;;;;;;;;;;20.62;71.44;100666.03;7393804;19;1845;-48
2023/05/29 00:34:14;;;;;;;;;;;;;;;20.64;71.31;100657.81;7395946;19;1516;-49
2023/05/29 00:36:42;;;;;;;;;;;;;;;20.68;71.01;100658.38;7394786;19;1278;-51
2023/05/29 00:39:11;;;;;;;;;;;;;;;20.71;71.15;100668.81;7395130;19;1533;-49
2023/05/29 00:41:39;;;;;;;;;;;;;;;20.70;71.05;100662.59;7394958;19;1534;-49
2023/05/29 00:44:08;;;;;;;;;;;;;;;20.69;70.81;100660.03;7395609;19;1532;-49
2023/05/29 00:46:36;;;;;;;;;;;;;;;20.76;70.87;100670.06;7395019;19;1420;-49
2023/05/29 00:49:05;;;;;;;;;;;;;;;20.75;70.60;100664.81;7395363;19;2110;-49
2023/05/29 00:51:36;;;;;;;;;;;;;;;20.68;71.05;100669.13;7392768;19;1902;-48
2023/05/29 00:54:05;;;;;;;;;;;;;;;20.78;70.69;100667.22;7394214;19;1279;-48
2023/05/29 00:56:34;;;;;;;;;;;;;;;20.72;70.62;100665.97;7394099;19;1351;-49
2023/05/29 00:59:03;;;;;;;;;;;;;;;20.71;71.06;100664.31;7395095;19;1636;-48
2023/05/29 01:01:32;;;;;;;;;;;;;;;20.59;71.17;100655.59;7394438;19;1582;-49
2023/05/29 01:04:02;;;;;;;;;;;;;;;20.67;70.98;100662.88;7394620;19;1560;-49
2023/05/29 01:06:30;;;;;;;;;;;;;;;20.65;71.02;100664.88;7394202;19;1294;-50
2023/05/29 01:09:01;;;;;;;;;;;;;;;20.63;71.14;100662.34;7395956;19;1593;-49
2023/05/29 01:11:34;;;;;;;;;;;;;;;20.70;70.64;100691.31;7398415;19;1893;-50
2023/05/29 01:14:05;;;;;;;;;;;;;;;20.68;71.05;100661.91;7402281;19;1925;-49
2023/05/29 01:16:41;;;;;;;;;;;;;;;20.65;71.23;100662.19;7400786;19;1535;-49
2023/05/29 01:19:17;;;;;;;;;;;;;;;20.68;70.59;100669.13;7401246;19;1249;-48
2023/05/29 01:22:01;;;;;;;;;;;;;;;20.61;71.13;100661.66;7402084;19;1443;-48
2023/05/29 01:24:38;;;;;;;;;;;;;;;20.68;70.96;100661.06;7400150;19;1592;-49
2023/05/29 01:27:11;;;;;;;;;;;;;;;20.66;71.07;100656.66;7401181;19;1270;-48
2023/05/29 01:29:42;;;;;;;;;;;;;;;20.78;70.62;100653.78;7400474;19;1308;-49
2023/05/29 01:32:10;;;;;;;;;;;;;;;20.64;70.49;100652.44;7401200;19;1422;-49
2023/05/29 01:34:39;;;;;;;;;;;;;;;20.64;70.54;100661.34;7401038;19;1460;-49
2023/05/29 01:37:07;;;;;;;;;;;;;;;20.69;70.79;100651.97;7400884;19;1280;-49
2023/05/29 01:39:35;;;;;;;;;;;;;;;20.68;70.91;100642.25;7400617;19;1252;-49
2023/05/29 01:42:04;;;;;;;;;;;;;;;20.61;70.84;100642.84;7401784;19;1279;-49
2023/05/29 01:44:36;;;;;;;;;;;;;;;20.68;70.65;100642.25;7401378;19;1256;-48
2023/05/29 01:47:05;;;;;;;;;;;;;;;20.68;70.58;100637.72;7400186;19;1501;-49
2023/05/29 01:49:34;;;;;;;;;;;;;;;20.68;70.49;100642.25;7400702;19;1263;-49
2023/05/29 01:52:02;;;;;;;;;;;;;;;20.68;70.67;100628.81;7398434;19;1838;-52
2023/05/29 01:54:30;;;;;;;;;;;;;;;20.70;70.48;100624.97;7401315;19;1310;-49
2023/05/29 01:56:59;;;;;;;;;;;;;;;20.71;70.33;100620.44;7400692;19;1716;-49
2023/05/29 01:59:27;;;;;;;;;;;;;;;20.64;70.29;100623.72;7400710;19;1653;-49
2023/05/29 02:01:58;;;;;;;;;;;;;;;20.68;70.47;100640.41;7400388;19;1613;-49
2023/05/29 02:04:26;;;;;;;;;;;;;;;20.70;70.18;100624.13;7400957;19;1417;-48
2023/05/29 02:06:55;;;;;;;;;;;;;;;20.54;70.79;100663.19;7400081;19;1734;-48
2023/05/29 02:09:23;;;;;;;;;;;;;;;20.63;70.91;100640.84;7400294;19;1468;-49
2023/05/29 02:11:51;;;;;;;;;;;;;;;20.60;70.48;100635.78;7397572;19;1848;-49
2023/05/29 02:14:20;;;;;;;;;;;;;;;20.59;70.88;100635.91;7401070;19;1263;-48
2023/05/29 02:16:48;;;;;;;;;;;;;;;20.63;70.69;100638.16;7399109;19;1581;-48
2023/05/29 02:19:19;;;;;;;;;;;;;;;20.65;70.58;100641.56;7400126;19;1558;-48
2023/05/29 02:21:49;;;;;;;;;;;;;;;20.73;70.71;100650.69;7399052;19;1513;-49
2023/05/29 02:24:17;;;;;;;;;;;;;;;20.59;70.80;100627.84;7397341;19;1301;-48
2023/05/29 02:26:46;;;;;;;;;;;;;;;20.62;70.78;100639.16;7399827;19;1536;-48
2023/05/29 02:29:14;;;;;;;;;;;;;;;20.58;70.63;100643.09;7398387;19;1509;-49
2023/05/29 02:31:44;;;;;;;;;;;;;;;20.60;71.01;100648.38;7397151;19;1845;-49
2023/05/29 02:34:12;;;;;;;;;;;;;;;20.64;70.75;100647.91;7399828;19;1457;-49
2023/05/29 02:36:43;;;;;;;;;;;;;;;20.64;70.44;100655.13;7401236;19;1274;-49
2023/05/29 02:39:12;;;;;;;;;;;;;;;20.53;71.00;100642.72;7399738;19;1817;-49
2023/05/29 02:41:40;;;;;;;;;;;;;;;20.60;70.25;100641.16;7399706;19;1663;-49
2023/05/29 02:44:09;;;;;;;;;;;;;;;20.58;71.09;100664.59;7400304;19;1509;-48
2023/05/29 02:46:37;;;;;;;;;;;;;;;20.59;70.92;100670.84;7399807;19;1576;-48
2023/05/29 02:49:05;;;;;;;;;;;;;;;20.55;71.08;100662.22;7399926;19;2249;-49
2023/05/29 02:51:34;;;;;;;;;;;;;;;20.49;71.05;100662.78;7398158;19;1935;-48
2023/05/29 02:54:06;;;;;;;;;;;;;;;20.54;70.63;100663.19;7399862;19;1854;-49
2023/05/29 02:56:35;;;;;;;;;;;;;;;20.53;71.29;100655.28;7399246;19;1510;-49
2023/05/29 02:59:03;;;;;;;;;;;;;;;20.54;70.80;100657.81;7398505;19;1481;-50
2023/05/29 03:01:32;;;;;;;;;;;;;;;20.60;70.67;100657.25;7398716;19;1576;-49
2023/05/29 03:04:01;;;;;;;;;;;;;;;20.50;71.37;100661.81;7398287;19;1473;-49
2023/05/29 03:06:29;;;;;;;;;;;;;;;20.45;71.28;100669.44;7398920;19;1707;-49
2023/05/29 03:08:59;;;;;;;;;;;;;;;20.62;70.39;100671.38;7398423;19;1556;-50
2023/05/29 03:11:30;;;;;;;;;;;;;;;20.52;71.13;100649.06;7398484;19;1866;-49
2023/05/29 03:13:58;;;;;;;;;;;;;;;20.58;70.38;100659.22;7398815;19;1691;-48
2023/05/29 03:16:29;;;;;;;;;;;;;;;20.54;70.62;100659.69;7399215;19;1825;-50
2023/05/29 03:18:57;;;;;;;;;;;;;;;20.39;71.43;100653.91;7398764;19;1438;-48
2023/05/29 03:21:26;;;;;;;;;;;;;;;20.42;71.45;100664.38;7399039;19;1469;-49
2023/05/29 03:23:54;;;;;;;;;;;;;;;20.51;71.10;100646.53;7397095;19;1675;-49
2023/05/29 03:26:22;;;;;;;;;;;;;;;20.64;70.41;100658.66;7397527;19;1710;-49
2023/05/29 03:28:53;;;;;;;;;;;;;;;20.61;70.51;100658.97;7397852;19;1635;-50
2023/05/29 03:31:21;;;;;;;;;;;;;;;20.57;70.55;100662.91;7397802;19;1849;-48
2023/05/29 03:33:50;;;;;;;;;;;;;;;20.55;70.60;100659.53;7398341;19;1590;-49
2023/05/29 03:36:19;;;;;;;;;;;;;;;20.51;70.60;100658.09;7399200;19;1526;-49
2023/05/29 03:38:47;;;;;;;;;;;;;;;20.56;70.74;100663.91;7397269;19;1808;-50
2023/05/29 03:41:16;;;;;;;;;;;;;;;20.57;70.68;100662.91;7397716;19;1430;-49
2023/05/29 03:43:44;;;;;;;;;;;;;;;20.50;70.97;100667.19;7397096;19;1252;-49
2023/05/29 03:46:15;;;;;;;;;;;;;;;20.51;71.02;100671.53;7397485;19;1476;-50
2023/05/29 03:48:43;;;;;;;;;;;;;;;20.49;70.83;100681.59;7396101;19;1508;-50
2023/05/29 03:51:11;;;;;;;;;;;;;;;20.43;71.00;100677.69;7396845;19;1856;-49
2023/05/29 03:53:40;;;;;;;;;;;;;;;20.41;71.27;100673.44;7396615;19;1306;-49
2023/05/29 03:56:08;;;;;;;;;;;;;;;20.42;70.97;100673.28;7396790;19;1414;-49
2023/05/29 03:58:36;;;;;;;;;;;;;;;20.53;70.42;100677.63;7395779;19;1417;-49
2023/05/29 04:01:05;;;;;;;;;;;;;;;20.54;70.86;100679.31;7395737;19;1547;-49
2023/05/29 04:03:37;;;;;;;;;;;;;;;20.50;70.77;100672.56;7397222;19;1614;-49
2023/05/29 04:06:06;;;;;;;;;;;;;;;20.43;70.82;100682.19;7397936;19;1470;-49
2023/05/29 04:08:35;;;;;;;;;;;;;;;20.43;70.96;100675.00;7396496;19;1912;-49
2023/05/29 04:11:03;;;;;;;;;;;;;;;20.51;70.76;100689.50;7395604;19;1853;-49
2023/05/29 04:13:31;;;;;;;;;;;;;;;20.22;70.83;100642.13;7396844;19;1500;-50
2023/05/29 04:16:00;;;;;;;;;;;;;;;20.41;71.00;100694.91;7398437;19;1550;-50
2023/05/29 04:18:28;;;;;;;;;;;;;;;20.45;70.74;100704.38;7396128;19;1616;-50
2023/05/29 04:20:59;;;;;;;;;;;;;;;20.42;71.04;100694.78;7397352;19;1627;-49
2023/05/29 04:23:27;;;;;;;;;;;;;;;20.39;70.90;100696.91;7395576;19;1671;-49
2023/05/29 04:25:56;;;;;;;;;;;;;;;20.42;71.18;100688.56;7396784;19;1652;-49
2023/05/29 04:28:25;;;;;;;;;;;;;;;20.44;71.13;100687.41;7396103;19;1504;-48
2023/05/29 04:30:55;;;;;;;;;;;;;;;20.43;71.03;100687.56;7395141;19;1849;-48
2023/05/29 04:33:23;;;;;;;;;;;;;;;20.46;71.22;100698.00;7395289;19;1457;-48
2023/05/29 04:35:52;;;;;;;;;;;;;;;20.50;70.88;100694.03;7395794;19;1521;-48
2023/05/29 04:38:25;;;;;;;;;;;;;;;20.43;71.02;100692.91;7395877;19;1230;-49
2023/05/29 04:40:57;;;;;;;;;;;;;;;20.43;71.19;100679.50;7396044;19;1601;-49
2023/05/29 04:43:26;;;;;;;;;;;;;;;20.39;71.38;100703.13;7395129;19;1231;-49
2023/05/29 04:45:55;;;;;;;;;;;;;;;20.45;71.24;100697.19;7393859;19;1482;-49
2023/05/29 04:48:23;;;;;;;;;;;;;;;20.37;71.13;100689.00;7395042;19;1251;-49
2023/05/29 04:50:52;;;;;;;;;;;;;;;20.49;70.75;100703.06;7394500;19;1849;-49
2023/05/29 04:53:23;;;;;;;;;;;;;;;20.62;70.63;100697.41;7394953;19;1212;-49
2023/05/29 04:55:52;;;;;;;;;;;;;;;20.80;69.98;100700.16;7392369;19;1702;-49
2023/05/29 04:58:21;;;;;;;;;;;;;;;20.73;71.87;100712.50;7394817;19;1491;-49
2023/05/29 05:00:49;;;;;;;;;;;;;;;20.64;72.92;100717.75;7394100;19;1469;-49
2023/05/29 05:03:18;;;;;;;;;;;;;;;20.63;72.75;100707.16;7394521;19;1267;-49
2023/05/29 05:05:46;;;;;;;;;;;;;;;20.60;72.92;100710.16;7394901;19;1691;-49
2023/05/29 05:08:15;;;;;;;;;;;;;;;20.60;72.71;100710.16;7394413;19;1313;-49
2023/05/29 05:10:46;;;;;;;;;;;;;;;20.59;72.85;100714.69;7394377;19;1496;-48
2023/05/29 05:13:15;;;;;;;;;;;;;;;20.60;72.44;100708.31;7392736;19;1868;-48
2023/05/29 05:15:43;;;;;;;;;;;;;;;20.63;72.31;100704.47;7393839;19;1522;-49
2023/05/29 05:18:11;;;;;;;;;;;;;;;20.61;72.21;100707.31;7393415;19;1417;-48
2023/05/29 05:20:40;;;;;;;;;;;;;;;20.57;72.40;100687.09;7393489;19;1448;-49
2023/05/29 05:23:08;;;;;;;;;;;;;;;20.58;72.26;100722.84;7393973;19;1539;-48
2023/05/29 05:25:36;;;;;;;;;;;;;;;20.56;72.14;100708.72;7392112;19;1536;-49
2023/05/29 05:28:07;;;;;;;;;;;;;;;20.55;71.96;100715.94;7391675;19;1355;-49
2023/05/29 05:30:36;;;;;;;;;;;;;;;20.46;70.78;100709.59;7384887;19;1432;-52
2023/05/29 05:33:04;;;;;;;;;;;;;;;20.50;70.10;100699.41;7392388;19;1842;-52
2023/05/29 05:35:32;;;;;;;;;;;;;;;20.49;70.83;100691.50;7394326;19;1283;-51
2023/05/29 05:38:01;;;;;;;;;;;;;;;20.57;71.14;100705.91;7391954;19;1676;-52
2023/05/29 05:40:29;;;;;;;;;;;;;;;20.59;71.04;100695.88;7392213;19;1695;-52
2023/05/29 05:42:57;;;;;;;;;;;;;;;20.68;70.99;100712.09;7394265;19;1434;-52
2023/05/29 05:45:28;;;;;;;;;;;;;;;20.71;71.08;100695.69;7393932;19;1627;-52
2023/05/29 05:47:56;;;;;;;;;;;;;;;20.75;70.81;100702.44;7393909;19;1511;-51
2023/05/29 05:50:25;;;;;;;;;;;;;;;20.71;71.19;100690.31;7392789;19;1450;-51
2023/05/29 05:52:53;;;;;;;;;;;;;;;20.57;71.83;100703.22;7390581;19;1855;-51
2023/05/29 05:55:21;;;;;;;;;;;;;;;20.52;71.35;100702.78;7389579;19;1347;-51
2023/05/29 05:57:49;;;;;;;;;;;;;;;20.80;70.16;100705.53;7391652;19;1477;-50
2023/05/29 06:00:18;;;;;;;;;;;;;;;20.78;71.06;100707.53;7398307;19;1359;-49
2023/05/29 06:02:49;;;;;;;;;;;;;;;20.74;71.71;100711.50;7398131;19;1481;-50
2023/05/29 06:05:18;;;;;;;;;;;;;;;20.77;71.53;100712.06;7399019;19;1191;-49
2023/05/29 06:07:46;;;;;;;;;;;;;;;20.64;72.54;100716.94;7394812;19;1959;-49
2023/05/29 06:10:14;;;;;;;;;;;;;;;20.91;71.34;100710.72;7398153;19;1294;-48
2023/05/29 06:12:43;;;;;;;;;;;;;;;20.84;71.70;100715.00;7397095;19;1867;-48
2023/05/29 06:15:12;;;;;;;;;;;;;;;20.82;71.53;100719.69;7397610;19;1303;-49
2023/05/29 06:17:40;;;;;;;;;;;;;;;20.90;71.22;100717.09;7398064;19;1325;-49
2023/05/29 06:20:13;;;;;;;;;;;;;;;20.74;72.14;100717.72;7396590;19;1540;-49
2023/05/29 06:22:41;;;;;;;;;;;;;;;20.76;71.96;100720.28;7398547;19;1327;-49
2023/05/29 06:25:10;;;;;;;;;;;;;;;20.93;71.56;100727.56;7395658;19;1877;-49
2023/05/29 06:27:38;;;;;;;;;;;;;;;20.98;71.45;100724.41;7398148;19;1300;-49
2023/05/29 06:30:07;;;;;;;;;;;;;;;20.92;71.19;100725.84;7398030;19;1589;-49
2023/05/29 06:32:35;;;;;;;;;;;;;;;21.00;71.20;100725.09;7394539;19;1849;-48
2023/05/29 06:35:03;;;;;;;;;;;;;;;20.75;72.28;100724.81;7397083;19;1477;-50
2023/05/29 06:37:34;;;;;;;;;;;;;;;20.78;72.40;100712.91;7395535;19;1523;-49
2023/05/29 06:40:03;;;;;;;;;;;;;;;20.80;72.68;100722.50;7396634;19;1469;-50
2023/05/29 06:42:32;;;;;;;;;;;;;;;20.82;72.02;100719.69;7383157;19;1172;-49
2023/05/29 06:45:00;;;;;;;;;;;;;;;20.84;71.77;100718.53;7397567;19;1495;-50
2023/05/29 06:47:28;;;;;;;;;;;;;;;20.90;72.07;100711.72;7397899;19;1426;-49
2023/05/29 06:49:57;;;;;;;;;;;;;;;21.01;72.29;100714.22;7397756;19;1465;-50
2023/05/29 06:52:25;;;;;;;;;;;;;;;21.02;71.92;100709.66;7396238;19;1855;-51
2023/05/29 06:54:56;;;;;;;;;;;;;;;20.86;72.35;100716.53;7396733;19;1423;-51
2023/05/29 06:57:25;;;;;;;;;;;;;;;20.90;72.59;100709.03;7396232;19;1287;-49
2023/05/29 06:59:53;;;;;;;;;;;;;;;21.08;71.83;100700.16;7393570;19;1233;-51
2023/05/29 07:02:21;;;;;;;;;;;;;;;21.10;71.88;100695.47;7396399;19;1264;-50
2023/05/29 07:04:49;;;;;;;;;;;;;;;21.18;71.32;100709.84;7397796;19;1540;-50
2023/05/29 07:07:18;;;;;;;;;;;;;;;20.94;72.27;100707.72;7396045;19;1390;-51
2023/05/29 07:09:46;;;;;;;;;;;;;;;21.04;71.49;100703.13;7393303;19;1505;-50
2023/05/29 07:12:17;;;;;;;;;;;;;;;21.02;71.94;100702.44;7392590;19;1857;-50
2023/05/29 07:14:47;;;;;;;;;;;;;;;20.97;72.49;100702.06;7394373;19;1574;-51
2023/05/29 07:17:16;;;;;;;;;;;;;;;21.10;71.89;100701.69;7397963;19;1552;-50
2023/05/29 07:19:44;;;;;;;;;;;;;;;21.01;72.40;100706.16;7396034;19;1178;-50
2023/05/29 07:22:12;;;;;;;;;;;;;;;20.91;73.00;100701.78;7395938;19;1849;-50
2023/05/29 07:24:41;;;;;;;;;;;;;;;21.01;72.68;100711.53;7393502;19;1507;-51
2023/05/29 07:27:09;;;;;;;;;;;;;;;20.93;73.08;100711.44;7392337;19;1409;-50
2023/05/29 07:29:40;;;;;;;;;;;;;;;20.90;72.61;100711.72;7391249;19;1906;-51
2023/05/29 07:32:09;;;;;;;;;;;;;;;21.09;71.33;100720.66;7391650;19;1849;-50
2023/05/29 07:34:37;;;;;;;;;;;;;;;21.05;71.33;100738.97;7392596;19;1356;-50
2023/05/29 07:37:06;;;;;;;;;;;;;;;20.98;71.41;100730.63;7393105;19;1248;-50
2023/05/29 07:39:35;;;;;;;;;;;;;;;21.08;70.53;100725.19;7393943;19;1291;-50
2023/05/29 07:42:05;;;;;;;;;;;;;;;20.96;71.27;100745.22;7397074;19;1011;-49
2023/05/29 07:44:33;;;;;;;;;;;;;;;20.92;71.00;100735.75;7395238;19;1505;-50
2023/05/29 07:47:05;;;;;;;;;;;;;;;21.05;70.91;100747.88;7398936;19;1745;-50
2023/05/29 07:49:33;;;;;;;;;;;;;;;20.93;70.66;100743.69;7395154;19;1462;-51
2023/05/29 07:52:01;;;;;;;;;;;;;;;21.09;70.46;100750.25;7394382;19;1854;-50
2023/05/29 07:54:31;;;;;;;;;;;;;;;20.90;70.61;100730.53;7394337;19;1943;-50
2023/05/29 07:57:00;;;;;;;;;;;;;;;20.88;71.03;100756.72;7394160;19;1552;-48
2023/05/29 07:59:28;;;;;;;;;;;;;;;20.91;70.47;100745.69;7392660;19;1624;-48
2023/05/29 08:01:57;;;;;;;;;;;;;;;20.97;70.51;100745.09;7394062;19;1508;-48
2023/05/29 08:04:28;;;;;;;;;;;;;;;20.84;70.80;100755.31;7393312;19;1462;-48
2023/05/29 08:06:57;;;;;;;;;;;;;;;20.85;71.04;100735.53;7395697;19;1472;-48
2023/05/29 08:09:25;;;;;;;;;;;;;;;20.88;70.79;100748.66;7396120;19;1295;-47
2023/05/29 08:11:53;;;;;;;;;;;;;;;20.85;70.59;100736.34;7396290;19;1290;-48
2023/05/29 08:14:21;;;;;;;;;;;;;;;20.87;70.39;100733.53;7398022;19;1071;-47
2023/05/29 08:16:50;;;;;;;;;;;;;;;20.96;70.51;100721.03;7397454;19;1836;-48
2023/05/29 08:19:18;;;;;;;;;;;;;;;20.90;70.52;100722.47;7396281;19;1937;-48
2023/05/29 08:21:49;;;;;;;;;;;;;;;20.89;70.77;100730.66;7394938;19;1528;-48
2023/05/29 08:24:18;;;;;;;;;;;;;;;20.85;70.84;100719.41;7395329;19;1438;-48
2023/05/29 08:26:46;;;;;;;;;;;;;;;20.96;70.23;100721.88;7397043;19;1697;-48
2023/05/29 08:29:14;;;;;;;;;;;;;;;20.92;70.70;100711.56;7397100;19;1672;-48
2023/05/29 08:31:43;;;;;;;;;;;;;;;21.09;70.17;100720.66;7397122;19;1730;-48
2023/05/29 08:34:11;;;;;;;;;;;;;;;21.06;69.99;100711.91;7395621;19;1863;-47
2023/05/29 08:36:41;;;;;;;;;;;;;;;21.09;69.76;100716.16;7393501;19;1853;-50
2023/05/29 08:39:11;;;;;;;;;;;;;;;21.00;70.36;100712.50;7396138;19;1504;-47
2023/05/29 08:41:44;;;;;;;;;;;;;;;21.06;70.31;100713.75;7396636;19;1143;-49
2023/05/29 08:44:16;;;;;;;;;;;;;;;21.10;70.09;100719.69;7397032;19;1269;-48
2023/05/29 08:46:46;;;;;;;;;;;;;;;21.14;70.23;100713.00;7395143;19;1276;-48
2023/05/29 08:49:16;;;;;;;;;;;;;;;20.92;70.51;100715.09;7395836;19;1493;-48
2023/05/29 08:51:50;;;;;;;;;;;;;;;21.09;70.23;100715.28;7394874;19;1497;-48
2023/05/29 08:54:21;;;;;;;;;;;;;;;20.89;70.79;100720.78;7393689;19;1859;-48
2023/05/29 08:56:49;;;;;;;;;;;;;;;21.04;70.52;100719.28;7394468;19;1449;-48
2023/05/29 08:59:18;;;;;;;;;;;;;;;21.17;70.09;100702.78;7396288;19;1366;-47
2023/05/29 09:01:46;;;;;;;;;;;;;;;21.22;69.93;100694.25;7396506;19;1821;-48
2023/05/29 09:04:14;;;;;;;;;;;;;;;21.15;69.82;100701.22;7395091;19;1347;-47
2023/05/29 09:06:43;;;;;;;;;;;;;;;21.16;70.16;100705.63;7397565;19;1027;-47
2023/05/29 09:09:12;;;;;;;;;;;;;;;21.19;69.89;100702.66;7396047;19;1907;-48
2023/05/29 09:11:43;;;;;;;;;;;;;;;21.18;70.01;100693.72;7395380;19;1905;-48
2023/05/29 09:14:14;;;;;;;;;;;;;;;21.12;70.23;100699.69;7393765;19;1847;-47
2023/05/29 09:16:44;;;;;;;;;;;;;;;21.16;69.95;100702.94;7396353;19;1731;-47
2023/05/29 09:19:12;;;;;;;;;;;;;;;21.15;69.72;100683.28;7395600;19;1717;-48
2023/05/29 09:21:40;;;;;;;;;;;;;;;21.18;69.73;100679.44;7394687;19;1414;-47
2023/05/29 09:24:09;;;;;;;;;;;;;;;21.20;70.00;100685.50;7393515;19;1603;-47
2023/05/29 09:26:37;;;;;;;;;;;;;;;21.23;69.69;100683.34;7395216;19;1261;-47
2023/05/29 09:29:08;;;;;;;;;;;;;;;21.17;69.94;100686.66;7395968;19;1630;-47
2023/05/29 09:31:39;;;;;;;;;;;;;;;21.19;69.77;100676.59;7397843;19;1829;-48
2023/05/29 09:34:07;;;;;;;;;;;;;;;21.30;69.29;100669.31;7400824;19;1862;-49
2023/05/29 09:36:36;;;;;;;;;;;;;;;21.22;69.44;100662.81;7404457;19;1108;-47
2023/05/29 09:39:09;;;;;;;;;;;;;;;21.26;69.80;100660.69;7403438;19;1935;-47
2023/05/29 09:41:37;;;;;;;;;;;;;;;21.19;69.68;100665.84;7402887;19;1853;-48
2023/05/29 09:44:10;;;;;;;;;;;;;;;21.23;69.29;100659.16;7403355;19;1817;-48
2023/05/29 09:46:38;;;;;;;;;;;;;;;21.19;69.97;100683.81;7402903;19;1359;-47
2023/05/29 09:49:10;;;;;;;;;;;;;;;21.21;69.48;100642.31;7402433;19;1356;-48
2023/05/29 09:51:38;;;;;;;;;;;;;;;21.23;69.24;100652.94;7402263;19;1694;-48
2023/05/29 09:54:15;;;;;;;;;;;;;;;21.14;69.58;100673.50;7400823;19;1846;-47
2023/05/29 09:56:44;;;;;;;;;;;;;;;21.19;69.65;100663.16;7402765;19;1900;-48
2023/05/29 09:59:17;;;;;;;;;;;;;;;21.28;68.80;100658.69;7401074;19;1853;-47
2023/05/29 10:01:46;;;;;;;;;;;;;;;21.03;68.81;100661.13;7401964;19;1571;-48
2023/05/29 10:04:15;;;;;;;;;;;;;;;21.16;68.66;100652.69;7401197;19;1556;-48
2023/05/29 10:06:48;;;;;;;;;;;;;;;21.17;68.55;100646.31;7401537;19;1173;-48
2023/05/29 10:09:19;;;;;;;;;;;;;;;21.08;68.41;100646.38;7400702;19;1227;-47
2023/05/29 10:11:50;;;;;;;;;;;;;;;21.23;68.95;100647.56;7402005;19;1171;-48
2023/05/29 10:14:22;;;;;;;;;;;;;;;21.30;68.43;100637.88;7400293;19;1854;-48
2023/05/29 10:16:52;;;;;;;;;;;;;;;21.28;68.51;100649.78;7400745;19;1471;-48
2023/05/29 10:19:24;;;;;;;;;;;;;;;21.16;69.07;100657.22;7400831;19;1474;-48
2023/05/29 10:21:55;;;;;;;;;;;;;;;21.30;68.40;100639.72;7401420;19;1496;-47
2023/05/29 10:24:24;;;;;;;;;;;;;;;21.39;68.08;100649.56;7398093;19;1919;-47
2023/05/29 10:26:53;;;;;;;;;;;;;;;21.34;67.77;100657.22;7401420;19;1750;-48
2023/05/29 10:29:29;;;;;;;;;;;;;;;21.21;68.41;100645.03;7401247;19;1446;-50
2023/05/29 10:32:06;;;;;;;;;;;;;;;21.23;68.63;100643.03;7401415;19;1453;-50
2023/05/29 10:34:40;;;;;;;;;;;;;;;21.29;68.17;100641.56;7398041;19;1855;-50
2023/05/29 10:37:11;;;;;;;;;;;;;;;21.32;67.98;100618.88;7400815;19;1730;-50
2023/05/29 10:39:39;;;;;;;;;;;;;;;21.26;68.30;100625.72;7400868;19;1450;-50
2023/05/29 10:42:31;;;;;;;;;;;;;;;21.24;68.48;100630.41;7402274;19;1941;-50
2023/05/29 10:45:02;;;;;;;;;;;;;;;21.39;67.76;100619.97;7400050;19;2613;-50
2023/05/29 10:47:30;;;;;;;;;;;;;;;21.26;68.40;100634.63;7401968;19;1122;-50
2023/05/29 10:50:01;;;;;;;;;;;;;;;21.35;68.15;100624.81;7401713;19;1161;-50
2023/05/29 10:52:33;;;;;;;;;;;;;;;21.25;68.37;100622.19;7400068;19;1588;-50
2023/05/29 10:55:03;;;;;;;;;;;;;;;21.25;68.33;100624.03;7398382;19;1845;-50
2023/05/29 10:57:35;;;;;;;;;;;;;;;21.38;68.11;100624.47;7400129;19;1482;-50
2023/05/29 11:00:12;;;;;;;;;;;;;;;21.34;67.87;100619.56;7399946;19;1453;-50
2023/05/29 11:02:41;;;;;;;;;;;;;;;21.26;68.46;100625.72;7400182;19;1821;-50
2023/05/29 11:05:20;;;;;;;;;;;;;;;21.19;68.36;100613.91;7399704;19;1273;-50
2023/05/29 11:07:55;;;;;;;;;;;;;;;21.18;68.62;100617.56;7399855;19;1453;-50
2023/05/29 11:10:39;;;;;;;;;;;;;;;21.25;68.61;100613.28;7398530;19;1486;-50
2023/05/29 11:13:07;;;;;;;;;;;;;;;21.17;68.55;100615.88;7397804;19;1850;-50
2023/05/29 11:15:38;;;;;;;;;;;;;;;21.18;68.77;100628.34;7398880;19;1731;-50
2023/05/29 11:18:10;;;;;;;;;;;;;;;21.24;68.63;100612.41;7398184;19;1478;-52
2023/05/29 11:20:39;;;;;;;;;;;;;;;21.23;68.79;100617.97;7397362;19;1473;-50
2023/05/29 11:23:12;;;;;;;;;;;;;;;21.15;68.43;100607.13;7399621;19;1727;-50
2023/05/29 11:25:40;;;;;;;;;;;;;;;21.21;68.46;100619.97;7397868;19;1208;-50
2023/05/29 11:28:11;;;;;;;;;;;;;;;21.28;67.81;100604.91;7397521;19;1547;-50
2023/05/29 11:30:48;;;;;;;;;;;;;;;21.24;68.01;100606.22;7398798;19;1457;-50
2023/05/29 11:33:28;;;;;;;;;;;;;;;21.22;68.48;100598.28;7398679;19;1862;-50
2023/05/29 11:35:58;;;;;;;;;;;;;;;21.12;68.28;100610.13;7398095;19;1246;-50
2023/05/29 11:38:27;;;;;;;;;;;;;;;21.14;68.48;100606.28;7397539;19;1844;-50
2023/05/29 11:40:56;;;;;;;;;;;;;;;21.17;68.43;100597.06;7397667;19;1387;-50
2023/05/29 11:43:24;;;;;;;;;;;;;;;21.18;67.94;100607.66;7397858;19;1764;-50
2023/05/29 11:45:55;;;;;;;;;;;;;;;21.31;67.78;100585.78;7399101;19;1379;-50
2023/05/29 11:48:24;;;;;;;;;;;;;;;21.29;67.91;100593.16;7398625;19;1418;-50
2023/05/29 11:50:52;;;;;;;;;;;;;;;21.29;68.02;100592.28;7398555;19;1727;-50
2023/05/29 11:53:21;;;;;;;;;;;;;;;21.25;68.25;100591.78;7399042;19;1845;-50
2023/05/29 11:55:49;;;;;;;;;;;;;;;21.24;68.55;100585.53;7397333;19;1022;-51
2023/05/29 11:58:17;;;;;;;;;;;;;;;21.31;67.98;100579.53;7399580;19;949;-51
2023/05/29 12:00:50;;;;;;;;;;;;;;;21.21;68.29;100580.47;7398326;19;1520;-51
2023/05/29 12:03:20;;;;;;;;;;;;;;;21.26;68.12;100566.56;7397905;19;1814;-50
2023/05/29 12:05:52;;;;;;;;;;;;;;;21.38;67.66;100584.13;7397688;19;1604;-51
2023/05/29 12:08:23;;;;;;;;;;;;;;;21.43;67.51;100572.97;7397797;19;1283;-50
2023/05/29 12:10:52;;;;;;;;;;;;;;;21.36;67.67;100578.06;7398000;19;1746;-50
2023/05/29 12:13:21;;;;;;;;;;;;;;;21.32;68.31;100576.69;7398672;19;1871;-50
2023/05/29 12:15:51;;;;;;;;;;;;;;;21.24;67.93;100557.78;7395172;19;1731;-50
2023/05/29 12:18:22;;;;;;;;;;;;;;;21.17;68.39;100559.41;7396577;19;1959;-50
2023/05/29 12:20:51;;;;;;;;;;;;;;;21.16;68.54;100563.94;7396346;19;1402;-50
2023/05/29 12:23:20;;;;;;;;;;;;;;;21.25;68.01;100565.72;7395539;19;1879;-50
2023/05/29 12:25:49;;;;;;;;;;;;;;;21.34;68.04;100553.16;7398120;19;1007;-51
2023/05/29 12:28:18;;;;;;;;;;;;;;;21.26;68.03;100539.66;7396244;19;1833;-50
2023/05/29 12:30:49;;;;;;;;;;;;;;;21.18;68.37;100569.19;7396234;19;1866;-50
2023/05/29 12:33:30;;;;;;;;;;;;;;;21.23;68.68;100572.25;7396756;19;1086;-51
2023/05/29 12:36:03;;;;;;;;;;;;;;;21.26;67.96;100555.78;7397116;19;1604;-50
2023/05/29 12:38:32;;;;;;;;;;;;;;;21.22;68.09;100565.19;7394923;19;1837;-51
2023/05/29 12:41:00;;;;;;;;;;;;;;;21.33;67.96;100572.16;7398179;19;1117;-50
2023/05/29 12:43:28;;;;;;;;;;;;;;;21.29;68.07;100578.84;7396542;19;1539;-50
2023/05/29 12:45:58;;;;;;;;;;;;;;;21.30;68.00;100567.09;7397289;19;1734;-50
2023/05/29 12:48:31;;;;;;;;;;;;;;;21.33;68.25;100574.84;7396586;19;1829;-50
2023/05/29 12:51:00;;;;;;;;;;;;;;;21.29;68.28;100571.63;7397040;19;1383;-50
2023/05/29 12:53:31;;;;;;;;;;;;;;;21.29;68.20;100576.16;7396547;19;1852;-50
2023/05/29 12:55:59;;;;;;;;;;;;;;;21.25;68.49;100564.88;7395126;19;1366;-50
2023/05/29 12:58:27;;;;;;;;;;;;;;;21.12;68.94;100576.00;7395431;19;1419;-51
2023/05/29 13:00:57;;;;;;;;;;;;;;;21.20;68.59;100551.03;7397259;19;1827;-51